createdAt,value
2018-06-13T00:00:13.495Z,3.57
2018-06-13T00:02:43.176Z,3.50
2018-06-13T00:05:13.080Z,3.37
2018-06-13T00:07:42.772Z,3.23
2018-06-13T00:10:14.174Z,3.23
2018-06-13T00:12:43.966Z,3.57
2018-06-13T00:15:14.531Z,3.27
2018-06-13T00:17:44.127Z,3.13
2018-06-13T00:20:14.189Z,3.50
2018-06-13T00:22:43.952Z,3.07
2018-06-13T00:25:15.102Z,3.17
2018-06-13T00:27:45.719Z,3.17
2018-06-13T00:30:15.475Z,3.00
2018-06-13T00:32:45.104Z,3.63
2018-06-13T00:35:14.746Z,3.40
2018-06-13T00:37:44.696Z,3.60
2018-06-13T00:40:14.325Z,3.27
2018-06-13T00:42:44.865Z,3.43
2018-06-13T00:45:14.607Z,3.23
2018-06-13T00:47:44.375Z,2.97
2018-06-13T00:50:14.055Z,2.73
2018-06-13T00:52:43.739Z,2.90
2018-06-13T00:55:13.621Z,2.90
2018-06-13T00:57:43.384Z,3.70
2018-06-13T01:00:13.076Z,2.83
2018-06-13T01:02:43.076Z,3.00
2018-06-13T01:05:13.105Z,3.00
2018-06-13T01:07:42.912Z,3.13
2018-06-13T01:10:13.214Z,3.30
2018-06-13T01:12:42.660Z,3.47
2018-06-13T01:15:12.363Z,3.10
2018-06-13T01:17:42.368Z,3.37
2018-06-13T01:20:13.108Z,2.97
2018-06-13T01:22:42.817Z,3.10
2018-06-13T01:25:12.627Z,2.80
2018-06-13T01:27:42.335Z,3.20
2018-06-13T01:30:12.042Z,3.00
2018-06-13T01:32:41.643Z,3.73
2018-06-13T01:35:11.234Z,3.97
2018-06-13T01:37:41.886Z,3.63
2018-06-13T01:40:11.605Z,3.50
2018-06-13T01:42:41.357Z,3.87
2018-06-13T01:45:10.982Z,4.70
2018-06-13T01:47:40.737Z,4.00
2018-06-13T01:50:11.097Z,5.00
2018-06-13T01:52:40.835Z,4.53
2018-06-13T01:55:10.557Z,4.73
2018-06-13T01:57:40.395Z,5.17
2018-06-13T02:00:10.206Z,4.67
2018-06-13T02:02:40.463Z,4.50
2018-06-13T02:05:12.062Z,3.90
2018-06-13T02:07:41.780Z,4.13
2018-06-13T02:10:11.621Z,3.97
2018-06-13T02:12:42.221Z,3.60
2018-06-13T02:15:12.004Z,2.97
2018-06-13T02:17:42.623Z,3.40
2018-06-13T02:20:12.453Z,3.17
2018-06-13T02:22:44.108Z,3.30
2018-06-13T02:25:13.759Z,3.10
2018-06-13T02:27:43.494Z,3.23
2018-06-13T02:30:13.243Z,3.30
2018-06-13T02:32:43.467Z,3.30
2018-06-13T02:35:13.823Z,3.33
2018-06-13T02:37:43.486Z,3.30
2018-06-13T02:40:13.193Z,3.30
2018-06-13T02:42:43.730Z,3.20
2018-06-13T02:45:13.943Z,2.60
2018-06-13T02:47:43.756Z,3.00
2018-06-13T02:50:13.841Z,2.80
2018-06-13T02:52:43.865Z,3.23
2018-06-13T02:55:13.531Z,2.80
2018-06-13T02:57:43.374Z,3.40
2018-06-13T03:00:14.000Z,3.03
2018-06-13T03:02:43.640Z,3.00
2018-06-13T03:05:15.002Z,2.50
2018-06-13T03:07:44.700Z,2.40
2018-06-13T03:10:14.348Z,1.80
2018-06-13T03:14:13.503Z,1.70
2018-06-13T03:16:43.188Z,1.47
2018-06-13T03:19:12.876Z,1.57
2018-06-13T03:21:42.635Z,1.40
2018-06-13T03:24:12.810Z,1.80
2018-06-13T03:26:42.958Z,2.00
2018-06-13T03:29:12.704Z,1.77
2018-06-13T03:31:42.535Z,1.67
2018-06-13T03:34:12.298Z,1.87
2018-06-13T03:36:43.022Z,1.87
2018-06-13T03:39:12.733Z,1.50
2018-06-13T03:41:42.535Z,1.73
2018-06-13T03:44:12.376Z,2.07
2018-06-13T03:46:42.805Z,1.80
2018-06-13T03:49:13.317Z,2.00
2018-06-13T03:51:43.688Z,1.77
2018-06-13T03:54:13.779Z,1.97
2018-06-13T03:56:43.494Z,1.90
2018-06-13T03:59:13.192Z,1.80
2018-06-13T04:01:42.909Z,2.30
2018-06-13T04:04:12.606Z,2.10
2018-06-13T04:06:42.615Z,2.20
2018-06-13T04:09:12.915Z,2.10
2018-06-13T04:11:42.727Z,2.00
2018-06-13T04:14:13.589Z,2.50
2018-06-13T04:16:44.422Z,2.50
2018-06-13T04:19:14.258Z,2.00
2018-06-13T04:21:44.347Z,2.20
2018-06-13T04:24:16.295Z,2.20
2018-06-13T04:26:46.739Z,1.90
2018-06-13T04:29:16.576Z,2.03
2018-06-13T04:31:47.576Z,2.50
2018-06-13T04:34:17.605Z,2.30
2018-06-13T04:36:50.686Z,2.20
2018-06-13T04:39:20.393Z,1.90
2018-06-13T04:41:51.820Z,2.00
2018-06-13T04:45:50.461Z,2.10
2018-06-13T04:48:20.547Z,2.10
2018-06-13T04:50:50.981Z,2.07
2018-06-13T04:53:20.855Z,2.20
2018-06-13T04:55:51.520Z,2.10
2018-06-13T04:58:24.210Z,1.80
2018-06-13T05:00:54.828Z,2.20
2018-06-13T05:03:24.882Z,2.00
2018-06-13T05:05:55.453Z,2.30
2018-06-13T05:08:26.856Z,2.27
2018-06-13T05:10:57.708Z,2.10
2018-06-13T05:13:28.603Z,2.23
2018-06-13T05:15:57.925Z,2.13
2018-06-13T05:18:27.946Z,2.00
2018-06-13T05:20:59.189Z,2.13
2018-06-13T05:23:31.685Z,2.00
2018-06-13T05:26:01.574Z,2.80
2018-06-13T05:28:31.520Z,2.83
2018-06-13T05:31:01.136Z,1.90
2018-06-13T05:33:31.711Z,2.03
2018-06-13T05:36:02.205Z,2.20
2018-06-13T05:38:31.928Z,2.20
2018-06-13T05:41:01.685Z,2.80
2018-06-13T05:43:31.301Z,2.67
2018-06-13T05:46:01.759Z,2.40
2018-06-13T05:48:31.530Z,1.90
2018-06-13T05:51:02.265Z,2.10
2018-06-13T05:53:33.646Z,2.63
2018-06-13T05:56:04.423Z,2.93
2018-06-13T05:58:34.734Z,3.33
2018-06-13T06:01:04.589Z,3.23
2018-06-13T06:03:35.312Z,2.90
2018-06-13T06:06:05.952Z,3.47
2018-06-13T06:08:36.277Z,3.57
2018-06-13T06:11:05.973Z,3.20
2018-06-13T06:13:35.653Z,4.10
2018-06-13T06:16:05.724Z,3.00
2018-06-13T06:18:36.499Z,2.80
2018-06-13T06:21:06.682Z,3.43
2018-06-13T06:23:37.207Z,3.40
2018-06-13T06:26:07.665Z,2.93
2018-06-13T06:28:38.624Z,2.80
2018-06-13T06:31:09.827Z,3.40
2018-06-13T06:33:40.157Z,2.83
2018-06-13T06:36:09.953Z,3.70
2018-06-13T06:38:39.540Z,3.50
2018-06-13T06:41:09.650Z,3.43
2018-06-13T06:43:39.313Z,3.57
2018-06-13T06:46:08.961Z,3.30
2018-06-13T06:48:38.608Z,2.63
2018-06-13T06:51:08.527Z,2.80
2018-06-13T06:53:38.171Z,3.00
2018-06-13T06:56:07.911Z,3.23
2018-06-13T06:58:37.772Z,2.77
2018-06-13T07:01:08.582Z,2.80
2018-06-13T07:03:38.740Z,2.90
2018-06-13T07:06:08.987Z,3.00
2018-06-13T07:08:39.332Z,2.63
2018-06-13T07:11:09.646Z,2.20
2018-06-13T07:13:40.803Z,2.57
2018-06-13T07:16:10.632Z,2.60
2018-06-13T07:18:40.353Z,2.70
2018-06-13T07:21:10.708Z,3.00
2018-06-13T07:23:40.416Z,2.40
2018-06-13T07:26:10.086Z,2.83
2018-06-13T07:28:41.094Z,2.77
2018-06-13T07:31:10.760Z,2.70
2018-06-13T07:33:40.464Z,2.63
2018-06-13T07:36:11.088Z,2.47
2018-06-13T07:38:41.244Z,2.90
2018-06-13T07:41:11.157Z,2.90
2018-06-13T07:43:41.258Z,2.73
2018-06-13T07:46:12.180Z,2.17
2018-06-13T07:48:41.937Z,2.97
2018-06-13T07:51:11.730Z,2.80
2018-06-13T07:53:42.077Z,2.93
2018-06-13T07:56:11.989Z,2.90
2018-06-13T07:58:42.600Z,2.57
2018-06-13T08:01:12.373Z,3.23
2018-06-13T08:03:42.038Z,3.20
2018-06-13T08:06:13.182Z,3.10
2018-06-13T08:13:20.530Z,4.00
2018-06-13T08:15:50.606Z,3.23
2018-06-13T08:18:20.482Z,3.53
2018-06-13T08:20:50.192Z,3.50
2018-06-13T08:23:20.237Z,3.47
2018-06-13T08:25:51.348Z,3.37
2018-06-13T08:28:21.729Z,3.90
2018-06-13T08:30:51.672Z,3.77
2018-06-13T08:33:23.333Z,3.33
2018-06-13T08:35:54.611Z,4.10
2018-06-13T08:38:24.906Z,3.30
2018-06-13T08:40:59.449Z,3.37
2018-06-13T08:43:30.705Z,3.00
2018-06-13T08:46:00.617Z,2.90
2018-06-13T08:48:30.536Z,2.80
2018-06-13T08:51:00.505Z,2.43
2018-06-13T08:53:30.464Z,2.50
2018-06-13T08:56:00.423Z,2.23
2018-06-13T08:58:31.185Z,2.37
2018-06-13T09:01:01.014Z,2.87
2018-06-13T09:03:30.855Z,2.90
2018-06-13T09:06:00.622Z,2.70
2018-06-13T09:08:30.516Z,2.70
2018-06-13T09:11:00.510Z,2.60
2018-06-13T09:13:30.356Z,3.00
2018-06-13T09:16:00.197Z,3.10
2018-06-13T09:18:36.171Z,2.90
2018-06-13T09:21:06.478Z,3.10
2018-06-13T09:23:36.063Z,3.27
2018-06-13T09:26:05.765Z,3.80
2018-06-13T09:28:36.135Z,3.77
2018-06-13T09:31:07.979Z,3.50
2018-06-13T09:33:39.852Z,3.30
2018-06-13T09:36:11.580Z,2.63
2018-06-13T09:38:41.325Z,2.57
2018-06-13T09:41:12.406Z,2.53
2018-06-13T09:43:43.004Z,2.80
2018-06-13T09:46:12.985Z,2.80
2018-06-13T09:48:42.981Z,2.90
2018-06-13T09:51:13.092Z,2.43
2018-06-13T09:53:42.776Z,2.73
2018-06-13T09:56:13.043Z,2.40
2018-06-13T09:58:50.646Z,2.23
2018-06-13T10:01:25.515Z,2.40
2018-06-13T10:03:55.299Z,2.10
2018-06-13T10:06:25.055Z,2.30
2018-06-13T10:08:55.033Z,2.20
2018-06-13T10:11:26.885Z,2.00
2018-06-13T10:13:56.525Z,2.20
2018-06-13T10:16:26.626Z,1.93
2018-06-13T10:18:56.325Z,1.93
2018-06-13T10:21:26.065Z,1.77
2018-06-13T10:23:56.033Z,2.00
2018-06-13T10:26:26.276Z,2.20
2018-06-13T10:28:55.882Z,1.87
2018-06-13T10:31:25.767Z,2.00
2018-06-13T10:33:55.461Z,2.03
2018-06-13T10:36:29.323Z,2.10
2018-06-13T10:39:00.032Z,2.40
2018-06-13T10:41:29.864Z,2.60
2018-06-13T10:43:59.656Z,2.90
2018-06-13T10:46:30.052Z,2.93
2018-06-13T10:49:00.201Z,3.30
2018-06-13T10:51:31.055Z,2.87
2018-06-13T10:54:02.288Z,3.13
2018-06-13T10:56:32.542Z,2.83
2018-06-13T10:59:03.076Z,3.13
2018-06-13T11:01:32.963Z,2.80
2018-06-13T11:04:03.892Z,2.80
2018-06-13T11:06:34.723Z,3.07
2018-06-13T11:09:07.315Z,2.60
2018-06-13T11:11:37.367Z,2.70
2018-06-13T11:14:07.249Z,2.67
2018-06-13T11:16:40.168Z,2.30
2018-06-13T11:19:09.963Z,2.13
2018-06-13T11:21:40.357Z,2.13
2018-06-13T11:24:10.846Z,2.00
2018-06-13T11:26:40.750Z,1.70
2018-06-13T11:29:11.669Z,2.07
2018-06-13T11:31:41.616Z,2.10
2018-06-13T11:34:11.411Z,1.70
2018-06-13T11:36:41.964Z,2.20
2018-06-13T11:39:12.181Z,1.63
2018-06-13T11:41:43.302Z,1.80
2018-06-13T11:44:13.297Z,1.70
2018-06-13T11:46:43.112Z,1.73
2018-06-13T11:49:12.843Z,2.10
2018-06-13T11:51:43.336Z,1.70
2018-06-13T11:54:14.055Z,1.97
2018-06-13T11:56:44.486Z,1.90
2018-06-13T11:59:14.192Z,1.73
2018-06-13T12:01:44.710Z,1.90
2018-06-13T12:04:14.572Z,2.20
2018-06-13T12:06:44.491Z,1.87
2018-06-13T12:09:15.204Z,1.70
2018-06-13T12:11:45.024Z,1.90
2018-06-13T12:14:14.934Z,2.10
2018-06-13T12:16:45.437Z,1.90
2018-06-13T12:19:15.095Z,1.30
2018-06-13T12:21:45.248Z,1.40
2018-06-13T12:24:15.060Z,1.90
2018-06-13T12:26:45.408Z,1.70
2018-06-13T12:29:15.701Z,1.40
2018-06-13T12:31:45.453Z,1.60
2018-06-13T12:34:15.189Z,2.10
2018-06-13T12:36:44.795Z,1.90
2018-06-13T12:39:14.977Z,2.10
2018-06-13T12:41:45.063Z,2.00
2018-06-13T12:44:14.673Z,1.80
2018-06-13T12:46:45.208Z,1.80
2018-06-13T12:49:14.932Z,2.00
2018-06-13T12:51:44.737Z,2.30
2018-06-13T12:54:14.521Z,2.50
2018-06-13T12:56:44.278Z,2.60
2018-06-13T12:59:14.155Z,2.57
2018-06-13T13:01:43.868Z,2.60
2018-06-13T13:04:13.552Z,2.87
2018-06-13T13:06:43.172Z,3.17
2018-06-13T13:09:14.026Z,3.40
2018-06-13T13:11:48.783Z,3.10
2018-06-13T13:14:18.809Z,2.60
2018-06-13T13:16:52.444Z,2.63
2018-06-13T13:19:25.216Z,2.77
2018-06-13T13:21:57.480Z,2.40
2018-06-13T13:24:28.709Z,2.43
2018-06-13T13:27:02.805Z,2.87
2018-06-13T13:29:35.282Z,2.47
2018-06-13T13:32:04.965Z,2.20
2018-06-13T13:34:37.160Z,2.30
2018-06-13T13:37:07.037Z,2.20
2018-06-13T13:39:39.509Z,2.23
2018-06-13T13:42:11.052Z,2.40
2018-06-13T13:44:42.280Z,2.67
2018-06-13T13:47:12.009Z,2.60
2018-06-13T13:49:42.350Z,2.40
2018-06-13T13:52:13.108Z,2.30
2018-06-13T13:54:44.698Z,2.20
2018-06-13T13:57:14.984Z,1.90
2018-06-13T13:59:48.027Z,2.07
2018-06-13T14:02:19.441Z,2.43
2018-06-13T14:04:50.315Z,2.00
2018-06-13T14:07:22.392Z,2.03
2018-06-13T14:09:52.554Z,2.13
2018-06-13T14:12:22.306Z,2.13
2018-06-13T14:14:52.839Z,2.10
2018-06-13T14:17:23.410Z,2.57
2018-06-13T14:19:54.680Z,2.33
2018-06-13T14:22:24.565Z,2.50
2018-06-13T14:24:55.527Z,2.60
2018-06-13T14:27:25.277Z,2.60
2018-06-13T14:29:56.747Z,2.70
2018-06-13T14:32:28.389Z,2.83
2018-06-13T14:35:00.266Z,2.97
2018-06-13T14:37:34.661Z,2.80
2018-06-13T14:40:06.568Z,2.47
2018-06-13T14:42:37.003Z,2.90
2018-06-13T14:45:08.119Z,2.50
2018-06-13T14:47:39.903Z,2.80
2018-06-13T14:50:16.063Z,2.67
2018-06-13T14:52:46.872Z,2.30
2018-06-13T14:55:17.876Z,2.30
2018-06-13T14:57:50.349Z,2.53
2018-06-13T15:00:22.815Z,2.20
2018-06-13T15:02:56.168Z,2.80
2018-06-13T15:05:26.809Z,2.10
2018-06-13T15:07:59.479Z,2.30
2018-06-13T15:10:30.731Z,2.20
2018-06-13T15:13:02.292Z,2.00
2018-06-13T15:15:34.718Z,1.90
2018-06-13T15:18:10.495Z,2.20
2018-06-13T15:20:43.134Z,2.20
2018-06-13T15:23:14.948Z,1.97
2018-06-13T15:25:44.990Z,2.20
2018-06-13T15:28:14.922Z,2.00
2018-06-13T15:30:44.677Z,2.80
2018-06-13T15:33:14.763Z,3.90
2018-06-13T15:35:46.106Z,2.30
2018-06-13T15:38:17.879Z,2.10
2018-06-13T15:40:49.511Z,2.20
2018-06-13T15:43:20.396Z,2.00
2018-06-13T15:45:51.467Z,2.10
2018-06-13T15:48:25.857Z,2.30
2018-06-13T15:50:58.619Z,2.50
2018-06-13T15:53:29.874Z,2.97
2018-06-13T15:56:00.534Z,2.33
2018-06-13T15:58:31.592Z,2.30
2018-06-13T16:01:01.649Z,2.10
2018-06-13T16:03:32.288Z,2.30
2018-06-13T16:06:03.077Z,1.87
2018-06-13T16:08:35.259Z,2.30
2018-06-13T16:11:06.147Z,2.57
2018-06-13T16:13:36.960Z,2.47
2018-06-13T16:16:09.514Z,2.23
2018-06-13T16:18:39.737Z,2.00
2018-06-13T16:21:10.156Z,2.00
2018-06-13T16:23:40.600Z,2.20
2018-06-13T16:26:11.064Z,2.17
2018-06-13T16:28:43.549Z,1.90
2018-06-13T16:31:14.300Z,2.00
2018-06-13T16:33:44.852Z,2.20
2018-06-13T16:36:15.414Z,2.07
2018-06-13T16:38:45.786Z,2.33
2018-06-13T16:41:16.510Z,2.10
2018-06-13T16:43:47.364Z,2.57
2018-06-13T16:46:18.670Z,2.60
2018-06-13T16:48:52.975Z,2.90
2018-06-13T16:51:39.603Z,2.43
2018-06-13T16:54:17.528Z,2.30
2018-06-13T16:56:48.271Z,2.17
2018-06-13T16:59:18.076Z,2.30
2018-06-13T17:01:51.542Z,2.40
2018-06-13T17:04:26.284Z,2.60
2018-06-13T17:06:56.648Z,2.53
2018-06-13T17:09:27.755Z,2.60
2018-06-13T17:11:57.804Z,2.67
2018-06-13T17:14:27.596Z,2.40
2018-06-13T17:16:59.193Z,2.30
2018-06-13T17:19:29.114Z,2.40
2018-06-13T17:21:59.607Z,2.50
2018-06-13T17:24:30.570Z,2.53
2018-06-13T17:27:00.699Z,2.60
2018-06-13T17:29:31.164Z,2.37
2018-06-13T17:32:00.912Z,2.43
2018-06-13T17:34:30.660Z,2.40
2018-06-13T17:37:00.324Z,2.50
2018-06-13T17:39:31.086Z,2.47
2018-06-13T17:42:00.839Z,2.50
2018-06-13T17:44:31.204Z,2.10
2018-06-13T17:47:00.873Z,2.97
2018-06-13T17:49:32.512Z,2.40
2018-06-13T17:52:02.263Z,2.23
2018-06-13T17:54:32.060Z,2.40
2018-06-13T17:57:01.844Z,2.17
2018-06-13T17:59:32.171Z,2.50
2018-06-13T18:02:01.973Z,2.70
2018-06-13T18:04:32.339Z,2.40
2018-06-13T18:07:05.366Z,2.97
2018-06-13T18:09:35.489Z,2.60
2018-06-13T18:12:05.275Z,2.47
2018-06-13T18:14:34.984Z,2.40
2018-06-13T18:17:04.888Z,2.90
2018-06-13T18:19:34.765Z,2.83
2018-06-13T18:22:04.573Z,2.50
2018-06-13T18:24:34.817Z,2.70
2018-06-13T18:27:04.801Z,2.50
2018-06-13T18:29:35.855Z,2.83
2018-06-13T18:32:05.616Z,2.40
2018-06-13T18:34:35.410Z,2.60
2018-06-13T18:37:05.327Z,2.30
2018-06-13T18:39:35.864Z,2.60
2018-06-13T18:42:06.351Z,2.27
2018-06-13T18:44:36.235Z,2.77
2018-06-13T18:47:06.089Z,2.70
2018-06-13T18:49:36.085Z,2.90
2018-06-13T18:52:06.464Z,3.40
2018-06-13T18:54:36.306Z,3.20
2018-06-13T18:57:06.173Z,2.70
2018-06-13T18:59:36.203Z,3.00
2018-06-13T19:02:06.575Z,2.67
2018-06-13T19:04:36.316Z,2.67
2018-06-13T19:07:06.242Z,2.50
2018-06-13T19:09:36.499Z,2.77
2018-06-13T19:12:06.193Z,2.53
2018-06-13T19:14:36.070Z,2.70
2018-06-13T19:17:05.946Z,2.70
2018-06-13T19:19:37.734Z,2.50
2018-06-13T19:22:07.944Z,2.60
2018-06-13T19:24:38.647Z,2.40
2018-06-13T19:27:09.422Z,2.50
2018-06-13T19:29:39.353Z,2.40
2018-06-13T19:32:09.215Z,2.70
2018-06-13T19:34:39.008Z,2.70
2018-06-13T19:37:08.954Z,2.33
2018-06-13T19:39:38.824Z,2.30
2018-06-13T19:42:08.544Z,2.27
2018-06-13T19:44:38.597Z,2.67
2018-06-13T19:48:15.312Z,2.50
2018-06-13T19:50:45.180Z,2.70
2018-06-13T19:53:21.076Z,3.87
2018-06-13T19:55:56.562Z,2.97
2018-06-13T19:58:26.914Z,2.97
2018-06-13T20:00:59.740Z,2.73
2018-06-13T20:06:11.013Z,2.80
2018-06-13T20:08:40.751Z,2.50
2018-06-13T20:11:10.753Z,2.40
2018-06-13T20:13:45.534Z,2.77
2018-06-13T20:16:27.379Z,2.90
2018-06-13T20:20:06.053Z,3.20
2018-06-13T20:22:35.901Z,2.90
2018-06-13T20:25:11.121Z,2.93
2018-06-13T20:27:45.957Z,2.73
2018-06-13T20:30:21.181Z,3.10
2018-06-13T20:32:52.621Z,2.70
2018-06-13T20:35:23.521Z,2.80
2018-06-13T20:37:53.426Z,2.70
2018-06-13T20:40:23.281Z,2.33
2018-06-13T20:42:53.054Z,2.40
2018-06-13T20:45:22.709Z,2.20
2018-06-13T20:47:53.520Z,2.13
2018-06-13T20:50:23.468Z,2.50
2018-06-13T20:52:53.354Z,2.47
2018-06-13T20:55:23.197Z,2.40
2018-06-13T20:57:53.271Z,2.40
2018-06-13T21:00:23.791Z,2.50
2018-06-13T21:02:53.527Z,2.20
2018-06-13T21:05:23.257Z,2.67
2018-06-13T21:07:53.295Z,2.10
2018-06-13T21:10:23.067Z,2.30
2018-06-13T21:12:57.477Z,2.20
2018-06-13T21:15:27.297Z,2.13
2018-06-13T21:17:57.027Z,2.00
2018-06-13T21:20:28.111Z,2.23
2018-06-13T21:22:57.882Z,1.93
2018-06-13T21:25:27.613Z,2.40
2018-06-13T21:27:57.093Z,2.30
2018-06-13T21:30:26.805Z,2.13
2018-06-13T21:32:56.574Z,2.00
2018-06-13T21:35:26.199Z,2.20
2018-06-13T21:37:55.923Z,2.00
2018-06-13T21:40:25.683Z,2.20
2018-06-13T21:42:55.422Z,3.00
2018-06-13T21:45:25.232Z,2.70
2018-06-13T21:47:54.917Z,2.00
2018-06-13T21:50:24.685Z,2.10
2018-06-13T21:52:54.442Z,2.13
2018-06-13T21:55:24.219Z,2.00
2018-06-13T21:57:54.557Z,2.60
2018-06-13T22:00:24.521Z,2.37
2018-06-13T22:02:54.726Z,2.10
2018-06-13T22:05:24.470Z,2.30
2018-06-13T22:07:57.964Z,2.43
2018-06-13T22:10:27.782Z,2.23
2018-06-13T22:12:57.513Z,2.13
2018-06-13T22:15:27.610Z,2.30
2018-06-13T22:17:58.871Z,2.10
2018-06-13T22:20:29.072Z,1.90
2018-06-13T22:22:59.331Z,2.13
2018-06-13T22:25:29.045Z,2.17
2018-06-13T22:27:58.844Z,2.20
2018-06-13T22:30:28.622Z,2.60
2018-06-13T22:32:58.561Z,2.50
2018-06-13T22:35:28.487Z,2.30
2018-06-13T22:37:58.600Z,2.53
2018-06-13T22:40:28.310Z,2.23
2018-06-13T22:42:58.038Z,2.13
2018-06-13T22:45:27.860Z,2.23
2018-06-13T22:47:57.584Z,2.40
2018-06-13T22:50:27.298Z,2.03
2018-06-13T22:52:57.353Z,2.20
2018-06-13T22:55:27.112Z,2.60
2018-06-13T22:57:56.947Z,2.20
2018-06-13T23:00:44.012Z,2.20
2018-06-13T23:03:13.726Z,2.27
2018-06-13T23:05:43.467Z,2.20
2018-06-13T23:08:13.241Z,2.27
2018-06-13T23:10:43.016Z,2.30
2018-06-13T23:13:12.775Z,2.20
2018-06-13T23:15:42.530Z,2.23
2018-06-13T23:18:12.242Z,2.30
2018-06-13T23:20:41.972Z,2.10
2018-06-13T23:23:11.661Z,2.00
2018-06-13T23:25:41.319Z,2.20
2018-06-13T23:28:10.995Z,2.20
2018-06-13T23:30:40.825Z,2.30
2018-06-13T23:33:10.587Z,2.53
2018-06-13T23:35:40.442Z,2.23
2018-06-13T23:38:10.230Z,2.47
2018-06-13T23:40:39.930Z,2.73
2018-06-13T23:43:09.561Z,2.53
2018-06-13T23:45:39.465Z,2.20
2018-06-13T23:48:09.330Z,2.50
2018-06-13T23:50:39.008Z,2.73
2018-06-13T23:53:08.746Z,2.67
2018-06-13T23:55:38.739Z,2.20
2018-06-13T23:58:09.392Z,2.40
